sensor_id;sensor_type;location;lat;lon;timestamp;P1;durP1;ratioP1;P2;durP2;ratioP2
13445;SDS011;6795;51.232;3.764;2022-09-28T00:01:52;7.05;;;3.97;;
13445;SDS011;6795;51.232;3.764;2022-09-28T00:04:45;5.15;;;4.75;;
13445;SDS011;6795;51.232;3.764;2022-09-28T00:16:22;8.50;;;5.45;;
13445;SDS011;6795;51.232;3.764;2022-09-28T00:19:29;5.72;;;5.13;;
13445;SDS011;6795;51.232;3.764;2022-09-28T00:22:27;7.97;;;5.20;;
13445;SDS011;6795;51.232;3.764;2022-09-28T00:29:41;7.47;;;6.67;;
13445;SDS011;6795;51.232;3.764;2022-09-28T00:40:24;9.23;;;7.35;;
13445;SDS011;6795;51.232;3.764;2022-09-28T00:43:52;7.83;;;6.57;;
13445;SDS011;6795;51.232;3.764;2022-09-28T00:50:44;6.97;;;6.38;;
13445;SDS011;6795;51.232;3.764;2022-09-28T00:53:55;7.72;;;6.38;;
13445;SDS011;6795;51.232;3.764;2022-09-28T00:57:07;9.45;;;6.18;;
13445;SDS011;6795;51.232;3.764;2022-09-28T01:00:42;9.98;;;5.75;;
13445;SDS011;6795;51.232;3.764;2022-09-28T01:04:36;6.93;;;6.30;;
13445;SDS011;6795;51.232;3.764;2022-09-28T01:08:27;11.05;;;5.72;;
13445;SDS011;6795;51.232;3.764;2022-09-28T01:11:52;10.40;;;6.57;;
13445;SDS011;6795;51.232;3.764;2022-09-28T01:15:21;9.53;;;7.63;;
13445;SDS011;6795;51.232;3.764;2022-09-28T01:18:38;11.13;;;7.50;;
13445;SDS011;6795;51.232;3.764;2022-09-28T01:22:10;9.30;;;8.40;;
13445;SDS011;6795;51.232;3.764;2022-09-28T01:25:28;12.67;;;8.07;;
13445;SDS011;6795;51.232;3.764;2022-09-28T01:28:35;10.33;;;8.53;;
13445;SDS011;6795;51.232;3.764;2022-09-28T01:34:52;10.75;;;8.75;;
13445;SDS011;6795;51.232;3.764;2022-09-28T01:38:39;11.10;;;9.95;;
13445;SDS011;6795;51.232;3.764;2022-09-28T01:45:33;11.38;;;10.13;;
13445;SDS011;6795;51.232;3.764;2022-09-28T01:48:37;14.73;;;10.48;;
13445;SDS011;6795;51.232;3.764;2022-09-28T01:52:09;11.45;;;10.30;;
13445;SDS011;6795;51.232;3.764;2022-09-28T01:55:35;12.30;;;10.77;;
13445;SDS011;6795;51.232;3.764;2022-09-28T01:59:12;12.88;;;11.70;;
13445;SDS011;6795;51.232;3.764;2022-09-28T02:02:45;14.40;;;10.37;;
13445;SDS011;6795;51.232;3.764;2022-09-28T02:06:09;15.48;;;10.80;;
13445;SDS011;6795;51.232;3.764;2022-09-28T02:09:23;15.30;;;10.10;;
13445;SDS011;6795;51.232;3.764;2022-09-28T02:12:34;13.95;;;10.05;;
13445;SDS011;6795;51.232;3.764;2022-09-28T02:15:44;11.38;;;9.75;;
13445;SDS011;6795;51.232;3.764;2022-09-28T02:19:03;13.10;;;9.65;;
13445;SDS011;6795;51.232;3.764;2022-09-28T02:22:26;14.52;;;10.02;;
13445;SDS011;6795;51.232;3.764;2022-09-28T02:25:33;15.43;;;10.07;;
13445;SDS011;6795;51.232;3.764;2022-09-28T02:28:53;15.77;;;10.97;;
13445;SDS011;6795;51.232;3.764;2022-09-28T02:31:56;17.45;;;11.20;;
13445;SDS011;6795;51.232;3.764;2022-09-28T02:38:54;13.50;;;11.82;;
13445;SDS011;6795;51.232;3.764;2022-09-28T02:42:16;15.82;;;12.38;;
13445;SDS011;6795;51.232;3.764;2022-09-28T02:47:25;13.85;;;11.35;;
13445;SDS011;6795;51.232;3.764;2022-09-28T02:49:21;18.33;;;10.75;;
13445;SDS011;6795;51.232;3.764;2022-09-28T02:57:00;17.05;;;12.73;;
13445;SDS011;6795;51.232;3.764;2022-09-28T03:00:22;16.25;;;12.32;;
13445;SDS011;6795;51.232;3.764;2022-09-28T03:03:54;20.40;;;13.02;;
13445;SDS011;6795;51.232;3.764;2022-09-28T03:07:21;17.88;;;15.75;;
13445;SDS011;6795;51.232;3.764;2022-09-28T03:10:36;17.63;;;15.48;;
13445;SDS011;6795;51.232;3.764;2022-09-28T03:17:45;20.40;;;14.30;;
13445;SDS011;6795;51.232;3.764;2022-09-28T03:21:18;17.45;;;12.93;;
13445;SDS011;6795;51.232;3.764;2022-09-28T03:24:25;20.63;;;12.80;;
13445;SDS011;6795;51.232;3.764;2022-09-28T03:28:02;18.08;;;13.50;;
13445;SDS011;6795;51.232;3.764;2022-09-28T03:35:36;22.37;;;15.70;;
13445;SDS011;6795;51.232;3.764;2022-09-28T03:38:50;28.90;;;16.40;;
13445;SDS011;6795;51.232;3.764;2022-09-28T03:42:09;24.00;;;15.60;;
13445;SDS011;6795;51.232;3.764;2022-09-28T03:45:40;25.60;;;16.87;;
13445;SDS011;6795;51.232;3.764;2022-09-28T03:49:19;27.10;;;18.73;;
13445;SDS011;6795;51.232;3.764;2022-09-28T03:52:36;29.83;;;19.70;;
13445;SDS011;6795;51.232;3.764;2022-09-28T03:55:38;30.00;;;19.80;;
13445;SDS011;6795;51.232;3.764;2022-09-28T03:59:07;34.63;;;20.43;;
13445;SDS011;6795;51.232;3.764;2022-09-28T04:02:35;29.20;;;19.43;;
13445;SDS011;6795;51.232;3.764;2022-09-28T04:09:43;27.90;;;20.00;;
13445;SDS011;6795;51.232;3.764;2022-09-28T04:12:52;27.13;;;20.67;;
13445;SDS011;6795;51.232;3.764;2022-09-28T04:16:46;31.03;;;21.83;;
13445;SDS011;6795;51.232;3.764;2022-09-28T04:19:38;27.77;;;20.77;;
13445;SDS011;6795;51.232;3.764;2022-09-28T04:22:58;37.83;;;22.10;;
13445;SDS011;6795;51.232;3.764;2022-09-28T04:26:25;26.93;;;19.40;;
13445;SDS011;6795;51.232;3.764;2022-09-28T04:29:30;32.60;;;19.73;;
13445;SDS011;6795;51.232;3.764;2022-09-28T04:33:02;28.33;;;18.63;;
13445;SDS011;6795;51.232;3.764;2022-09-28T04:36:29;29.00;;;20.60;;
13445;SDS011;6795;51.232;3.764;2022-09-28T04:39:43;30.63;;;20.93;;
13445;SDS011;6795;51.232;3.764;2022-09-28T04:46:59;27.53;;;20.23;;
13445;SDS011;6795;51.232;3.764;2022-09-28T04:50:10;36.10;;;24.10;;
13445;SDS011;6795;51.232;3.764;2022-09-28T04:53:26;42.87;;;24.80;;
13445;SDS011;6795;51.232;3.764;2022-09-28T04:56:57;47.93;;;33.73;;
13445;SDS011;6795;51.232;3.764;2022-09-28T05:00:31;60.03;;;37.57;;
13445;SDS011;6795;51.232;3.764;2022-09-28T05:04:12;83.33;;;45.50;;
13445;SDS011;6795;51.232;3.764;2022-09-28T05:07:45;120.53;;;57.53;;
13445;SDS011;6795;51.232;3.764;2022-09-28T05:11:04;99.47;;;49.80;;
13445;SDS011;6795;51.232;3.764;2022-09-28T05:14:33;105.80;;;51.87;;
13445;SDS011;6795;51.232;3.764;2022-09-28T05:18:11;121.90;;;63.97;;
13445;SDS011;6795;51.232;3.764;2022-09-28T05:28:53;101.43;;;52.40;;
13445;SDS011;6795;51.232;3.764;2022-09-28T05:32:14;76.23;;;43.60;;
13445;SDS011;6795;51.232;3.764;2022-09-28T05:35:23;86.53;;;48.57;;
13445;SDS011;6795;51.232;3.764;2022-09-28T05:38:39;66.33;;;40.27;;
13445;SDS011;6795;51.232;3.764;2022-09-28T05:42:15;76.70;;;43.20;;
13445;SDS011;6795;51.232;3.764;2022-09-28T05:46:05;72.13;;;40.53;;
13445;SDS011;6795;51.232;3.764;2022-09-28T05:49:14;71.17;;;40.70;;
13445;SDS011;6795;51.232;3.764;2022-09-28T05:52:33;72.83;;;41.70;;
13445;SDS011;6795;51.232;3.764;2022-09-28T05:55:55;70.13;;;40.53;;
13445;SDS011;6795;51.232;3.764;2022-09-28T05:59:34;74.83;;;41.37;;
13445;SDS011;6795;51.232;3.764;2022-09-28T06:02:40;73.93;;;42.20;;
13445;SDS011;6795;51.232;3.764;2022-09-28T06:06:04;63.90;;;37.97;;
13445;SDS011;6795;51.232;3.764;2022-09-28T06:09:25;66.27;;;38.60;;
13445;SDS011;6795;51.232;3.764;2022-09-28T06:12:46;71.10;;;43.30;;
13445;SDS011;6795;51.232;3.764;2022-09-28T06:15:59;71.03;;;40.60;;
13445;SDS011;6795;51.232;3.764;2022-09-28T06:19:34;78.83;;;43.33;;
13445;SDS011;6795;51.232;3.764;2022-09-28T06:22:51;62.53;;;41.47;;
13445;SDS011;6795;51.232;3.764;2022-09-28T06:26:15;64.73;;;42.70;;
13445;SDS011;6795;51.232;3.764;2022-09-28T06:29:34;54.20;;;39.13;;
13445;SDS011;6795;51.232;3.764;2022-09-28T06:40:59;46.30;;;34.50;;
13445;SDS011;6795;51.232;3.764;2022-09-28T06:44:36;47.15;;;32.85;;
13445;SDS011;6795;51.232;3.764;2022-09-28T06:47:40;41.72;;;31.52;;
13445;SDS011;6795;51.232;3.764;2022-09-28T06:50:59;36.37;;;29.27;;
13445;SDS011;6795;51.232;3.764;2022-09-28T06:55:03;38.00;;;29.00;;
13445;SDS011;6795;51.232;3.764;2022-09-28T06:58:06;41.03;;;28.58;;
13445;SDS011;6795;51.232;3.764;2022-09-28T07:01:34;33.22;;;27.02;;
13445;SDS011;6795;51.232;3.764;2022-09-28T07:04:58;34.67;;;26.15;;
13445;SDS011;6795;51.232;3.764;2022-09-28T07:08:17;37.40;;;28.55;;
13445;SDS011;6795;51.232;3.764;2022-09-28T07:11:39;35.15;;;29.88;;
13445;SDS011;6795;51.232;3.764;2022-09-28T07:19:08;33.75;;;27.52;;
13445;SDS011;6795;51.232;3.764;2022-09-28T07:22:28;31.83;;;24.55;;
13445;SDS011;6795;51.232;3.764;2022-09-28T07:26:05;28.25;;;25.00;;
13445;SDS011;6795;51.232;3.764;2022-09-28T07:29:01;25.15;;;22.33;;
13445;SDS011;6795;51.232;3.764;2022-09-28T07:32:49;25.05;;;21.58;;
13445;SDS011;6795;51.232;3.764;2022-09-28T07:36:03;23.88;;;19.98;;
13445;SDS011;6795;51.232;3.764;2022-09-28T07:39:06;27.85;;;19.90;;
13445;SDS011;6795;51.232;3.764;2022-09-28T07:43:02;28.17;;;20.92;;
13445;SDS011;6795;51.232;3.764;2022-09-28T07:46:34;27.30;;;19.33;;
13445;SDS011;6795;51.232;3.764;2022-09-28T07:54:17;19.38;;;16.58;;
13445;SDS011;6795;51.232;3.764;2022-09-28T07:57:39;19.05;;;16.10;;
13445;SDS011;6795;51.232;3.764;2022-09-28T08:01:10;17.27;;;12.15;;
13445;SDS011;6795;51.232;3.764;2022-09-28T08:04:18;15.35;;;11.38;;
13445;SDS011;6795;51.232;3.764;2022-09-28T08:07:49;11.43;;;8.73;;
13445;SDS011;6795;51.232;3.764;2022-09-28T08:14:21;7.38;;;6.18;;
13445;SDS011;6795;51.232;3.764;2022-09-28T08:17:51;7.88;;;5.93;;
13445;SDS011;6795;51.232;3.764;2022-09-28T08:21:00;13.77;;;6.00;;
13445;SDS011;6795;51.232;3.764;2022-09-28T08:24:15;10.13;;;5.07;;
13445;SDS011;6795;51.232;3.764;2022-09-28T08:27:55;7.90;;;4.93;;
13445;SDS011;6795;51.232;3.764;2022-09-28T08:31:12;5.80;;;4.93;;
13445;SDS011;6795;51.232;3.764;2022-09-28T08:34:45;11.27;;;4.40;;
13445;SDS011;6795;51.232;3.764;2022-09-28T08:37:53;5.80;;;3.95;;
13445;SDS011;6795;51.232;3.764;2022-09-28T08:41:08;6.35;;;2.80;;
13445;SDS011;6795;51.232;3.764;2022-09-28T08:52:42;3.42;;;1.10;;
13445;SDS011;6795;51.232;3.764;2022-09-28T08:56:34;2.17;;;1.20;;
13445;SDS011;6795;51.232;3.764;2022-09-28T09:18:22;6.85;;;2.85;;
13445;SDS011;6795;51.232;3.764;2022-09-28T09:25:19;3.22;;;1.95;;
13445;SDS011;6795;51.232;3.764;2022-09-28T09:47:57;3.08;;;1.70;;
13445;SDS011;6795;51.232;3.764;2022-09-28T10:04:14;4.18;;;0.30;;
13445;SDS011;6795;51.232;3.764;2022-09-28T10:07:22;1.10;;;0.47;;
13445;SDS011;6795;51.232;3.764;2022-09-28T10:10:52;1.65;;;0.00;;
13445;SDS011;6795;51.232;3.764;2022-09-28T10:14:23;1.38;;;0.20;;
13445;SDS011;6795;51.232;3.764;2022-09-28T10:17:40;1.52;;;0.22;;
13445;SDS011;6795;51.232;3.764;2022-09-28T10:21:12;1.75;;;0.20;;
13445;SDS011;6795;51.232;3.764;2022-09-28T10:24:39;3.83;;;0.10;;
13445;SDS011;6795;51.232;3.764;2022-09-28T10:27:46;0.90;;;0.20;;
13445;SDS011;6795;51.232;3.764;2022-09-28T10:35:38;1.40;;;0.20;;
13445;SDS011;6795;51.232;3.764;2022-09-28T10:39:42;1.75;;;0.20;;
13445;SDS011;6795;51.232;3.764;2022-09-28T10:43:19;1.83;;;0.10;;
13445;SDS011;6795;51.232;3.764;2022-09-28T10:46:28;0.15;;;0.10;;
13445;SDS011;6795;51.232;3.764;2022-09-28T10:49:38;1.05;;;0.10;;
13445;SDS011;6795;51.232;3.764;2022-09-28T10:53:08;1.95;;;0.10;;
13445;SDS011;6795;51.232;3.764;2022-09-28T10:56:36;0.80;;;0.10;;
13445;SDS011;6795;51.232;3.764;2022-09-28T11:01:42;1.80;;;0.10;;
13445;SDS011;6795;51.232;3.764;2022-09-28T11:03:24;1.13;;;0.73;;
13445;SDS011;6795;51.232;3.764;2022-09-28T11:06:30;0.10;;;0.10;;
13445;SDS011;6795;51.232;3.764;2022-09-28T11:21:41;1.83;;;0.10;;
13445;SDS011;6795;51.232;3.764;2022-09-28T11:32:59;0.20;;;0.10;;
13445;SDS011;6795;51.232;3.764;2022-09-28T11:36:28;0.50;;;0.10;;
13445;SDS011;6795;51.232;3.764;2022-09-28T11:40:02;1.10;;;0.10;;
13445;SDS011;6795;51.232;3.764;2022-09-28T11:43:17;3.05;;;0.10;;
13445;SDS011;6795;51.232;3.764;2022-09-28T11:46:28;1.15;;;0.20;;
13445;SDS011;6795;51.232;3.764;2022-09-28T11:53:48;0.90;;;0.10;;
13445;SDS011;6795;51.232;3.764;2022-09-28T11:57:13;0.20;;;0.20;;
13445;SDS011;6795;51.232;3.764;2022-09-28T12:00:28;0.88;;;0.10;;
13445;SDS011;6795;51.232;3.764;2022-09-28T12:04:09;1.08;;;0.00;;
13445;SDS011;6795;51.232;3.764;2022-09-28T12:11:24;0.30;;;0.10;;
13445;SDS011;6795;51.232;3.764;2022-09-28T12:15:14;0.10;;;0.10;;
13445;SDS011;6795;51.232;3.764;2022-09-28T12:26:48;0.90;;;0.10;;
13445;SDS011;6795;51.232;3.764;2022-09-28T12:30:13;0.10;;;0.08;;
13445;SDS011;6795;51.232;3.764;2022-09-28T12:33:25;2.85;;;0.10;;
13445;SDS011;6795;51.232;3.764;2022-09-28T12:36:33;0.95;;;0.25;;
13445;SDS011;6795;51.232;3.764;2022-09-28T12:40:00;1.33;;;0.10;;
13445;SDS011;6795;51.232;3.764;2022-09-28T12:51:14;2.33;;;0.10;;
13445;SDS011;6795;51.232;3.764;2022-09-28T12:58:13;2.00;;;0.10;;
13445;SDS011;6795;51.232;3.764;2022-09-28T13:01:46;1.77;;;0.10;;
13445;SDS011;6795;51.232;3.764;2022-09-28T13:09:23;0.20;;;0.08;;
13445;SDS011;6795;51.232;3.764;2022-09-28T13:12:40;3.30;;;0.20;;
13445;SDS011;6795;51.232;3.764;2022-09-28T13:16:17;0.28;;;0.10;;
13445;SDS011;6795;51.232;3.764;2022-09-28T13:19:34;1.27;;;0.08;;
13445;SDS011;6795;51.232;3.764;2022-09-28T13:23:16;4.55;;;0.10;;
13445;SDS011;6795;51.232;3.764;2022-09-28T13:30:15;1.42;;;0.30;;
13445;SDS011;6795;51.232;3.764;2022-09-28T13:33:39;0.47;;;0.10;;
13445;SDS011;6795;51.232;3.764;2022-09-28T13:36:50;0.05;;;0.00;;
13445;SDS011;6795;51.232;3.764;2022-09-28T13:48:24;0.43;;;0.10;;
13445;SDS011;6795;51.232;3.764;2022-09-28T13:52:11;3.60;;;0.10;;
13445;SDS011;6795;51.232;3.764;2022-09-28T13:55:27;0.80;;;0.10;;
13445;SDS011;6795;51.232;3.764;2022-09-28T13:58:47;1.65;;;0.10;;
13445;SDS011;6795;51.232;3.764;2022-09-28T14:01:58;1.27;;;0.20;;
13445;SDS011;6795;51.232;3.764;2022-09-28T14:13:12;0.40;;;0.10;;
13445;SDS011;6795;51.232;3.764;2022-09-28T14:16:46;2.08;;;0.10;;
13445;SDS011;6795;51.232;3.764;2022-09-28T14:19:15;1.48;;;0.10;;
13445;SDS011;6795;51.232;3.764;2022-09-28T14:22:25;0.95;;;0.10;;
13445;SDS011;6795;51.232;3.764;2022-09-28T14:25:16;1.67;;;0.03;;
13445;SDS011;6795;51.232;3.764;2022-09-28T14:27:58;0.32;;;0.10;;
13445;SDS011;6795;51.232;3.764;2022-09-28T14:30:42;0.52;;;0.10;;
13445;SDS011;6795;51.232;3.764;2022-09-28T14:33:20;2.38;;;0.20;;
13445;SDS011;6795;51.232;3.764;2022-09-28T14:35:52;0.30;;;0.10;;
13445;SDS011;6795;51.232;3.764;2022-09-28T14:38:27;0.32;;;0.10;;
13445;SDS011;6795;51.232;3.764;2022-09-28T14:41:27;0.40;;;0.10;;
13445;SDS011;6795;51.232;3.764;2022-09-28T14:44:06;1.83;;;0.10;;
13445;SDS011;6795;51.232;3.764;2022-09-28T14:46:38;0.85;;;0.20;;
13445;SDS011;6795;51.232;3.764;2022-09-28T14:52:16;0.73;;;0.10;;
13445;SDS011;6795;51.232;3.764;2022-09-28T14:55:10;0.82;;;0.10;;
13445;SDS011;6795;51.232;3.764;2022-09-28T14:57:41;1.90;;;0.10;;
13445;SDS011;6795;51.232;3.764;2022-09-28T15:00:21;0.17;;;0.10;;
13445;SDS011;6795;51.232;3.764;2022-09-28T15:03:48;1.55;;;0.10;;
13445;SDS011;6795;51.232;3.764;2022-09-28T15:06:56;0.70;;;0.10;;
13445;SDS011;6795;51.232;3.764;2022-09-28T15:10:28;0.68;;;0.10;;
13445;SDS011;6795;51.232;3.764;2022-09-28T15:13:42;5.38;;;0.10;;
13445;SDS011;6795;51.232;3.764;2022-09-28T15:17:11;0.08;;;0.00;;
13445;SDS011;6795;51.232;3.764;2022-09-28T15:20:25;0.70;;;0.10;;
13445;SDS011;6795;51.232;3.764;2022-09-28T15:24:17;1.90;;;0.10;;
13445;SDS011;6795;51.232;3.764;2022-09-28T15:31:37;1.13;;;0.40;;
13445;SDS011;6795;51.232;3.764;2022-09-28T15:35:17;0.10;;;0.10;;
13445;SDS011;6795;51.232;3.764;2022-09-28T15:38:53;0.55;;;0.10;;
13445;SDS011;6795;51.232;3.764;2022-09-28T15:42:20;0.65;;;0.20;;
13445;SDS011;6795;51.232;3.764;2022-09-28T15:45:46;1.00;;;0.20;;
13445;SDS011;6795;51.232;3.764;2022-09-28T15:49:10;0.20;;;0.10;;
13445;SDS011;6795;51.232;3.764;2022-09-28T15:52:34;2.10;;;0.28;;
13445;SDS011;6795;51.232;3.764;2022-09-28T16:00:28;1.10;;;0.20;;
13445;SDS011;6795;51.232;3.764;2022-09-28T16:03:26;0.80;;;0.17;;
13445;SDS011;6795;51.232;3.764;2022-09-28T16:06:36;0.82;;;0.65;;
13445;SDS011;6795;51.232;3.764;2022-09-28T16:09:59;0.70;;;0.30;;
13445;SDS011;6795;51.232;3.764;2022-09-28T16:17:26;0.50;;;0.10;;
13445;SDS011;6795;51.232;3.764;2022-09-28T16:20:40;1.33;;;0.10;;
13445;SDS011;6795;51.232;3.764;2022-09-28T16:23:57;1.75;;;0.10;;
13445;SDS011;6795;51.232;3.764;2022-09-28T16:26:56;0.17;;;0.15;;
13445;SDS011;6795;51.232;3.764;2022-09-28T16:33:36;2.95;;;0.50;;
13445;SDS011;6795;51.232;3.764;2022-09-28T16:37:33;1.75;;;0.10;;
13445;SDS011;6795;51.232;3.764;2022-09-28T16:40:46;1.20;;;0.20;;
13445;SDS011;6795;51.232;3.764;2022-09-28T16:44:20;0.60;;;0.30;;
13445;SDS011;6795;51.232;3.764;2022-09-28T16:47:21;1.63;;;0.40;;
13445;SDS011;6795;51.232;3.764;2022-09-28T16:50:27;0.20;;;0.20;;
13445;SDS011;6795;51.232;3.764;2022-09-28T16:53:59;0.13;;;0.13;;
13445;SDS011;6795;51.232;3.764;2022-09-28T16:57:24;0.30;;;0.10;;
13445;SDS011;6795;51.232;3.764;2022-09-28T17:01:04;1.00;;;0.73;;
13445;SDS011;6795;51.232;3.764;2022-09-28T17:08:22;0.30;;;0.30;;
13445;SDS011;6795;51.232;3.764;2022-09-28T17:12:11;0.40;;;0.20;;
13445;SDS011;6795;51.232;3.764;2022-09-28T17:15:13;0.80;;;0.17;;
13445;SDS011;6795;51.232;3.764;2022-09-28T17:18:56;2.30;;;1.08;;
13445;SDS011;6795;51.232;3.764;2022-09-28T17:22:13;1.20;;;0.40;;
13445;SDS011;6795;51.232;3.764;2022-09-28T17:29:13;16.67;;;13.13;;
13445;SDS011;6795;51.232;3.764;2022-09-28T17:32:40;23.10;;;18.08;;
13445;SDS011;6795;51.232;3.764;2022-09-28T17:35:39;13.23;;;11.88;;
13445;SDS011;6795;51.232;3.764;2022-09-28T17:38:48;4.70;;;4.28;;
13445;SDS011;6795;51.232;3.764;2022-09-28T17:42:14;1.58;;;1.30;;
13445;SDS011;6795;51.232;3.764;2022-09-28T17:45:42;1.75;;;0.95;;
13445;SDS011;6795;51.232;3.764;2022-09-28T17:49:01;1.77;;;1.73;;
13445;SDS011;6795;51.232;3.764;2022-09-28T17:52:50;2.30;;;1.88;;
13445;SDS011;6795;51.232;3.764;2022-09-28T17:56:29;1.85;;;1.20;;
13445;SDS011;6795;51.232;3.764;2022-09-28T17:59:55;1.40;;;1.30;;
13445;SDS011;6795;51.232;3.764;2022-09-28T18:07:14;8.65;;;7.93;;
13445;SDS011;6795;51.232;3.764;2022-09-28T18:10:25;3.72;;;2.90;;
13445;SDS011;6795;51.232;3.764;2022-09-28T18:13:54;4.65;;;4.35;;
13445;SDS011;6795;51.232;3.764;2022-09-28T18:21:10;0.80;;;0.80;;
13445;SDS011;6795;51.232;3.764;2022-09-28T18:35:59;8.50;;;6.25;;
13445;SDS011;6795;51.232;3.764;2022-09-28T18:39:26;3.58;;;3.28;;
13445;SDS011;6795;51.232;3.764;2022-09-28T18:42:40;4.55;;;3.15;;
13445;SDS011;6795;51.232;3.764;2022-09-28T18:46:05;3.47;;;3.28;;
13445;SDS011;6795;51.232;3.764;2022-09-28T19:01:19;6.68;;;5.88;;
13445;SDS011;6795;51.232;3.764;2022-09-28T19:04:29;5.13;;;4.32;;
13445;SDS011;6795;51.232;3.764;2022-09-28T19:07:43;5.95;;;5.45;;
13445;SDS011;6795;51.232;3.764;2022-09-28T19:11:41;9.93;;;8.93;;
13445;SDS011;6795;51.232;3.764;2022-09-28T19:14:54;8.68;;;7.75;;
13445;SDS011;6795;51.232;3.764;2022-09-28T19:21:35;10.32;;;9.02;;
13445;SDS011;6795;51.232;3.764;2022-09-28T19:24:51;10.85;;;9.77;;
13445;SDS011;6795;51.232;3.764;2022-09-28T19:28:14;12.52;;;11.23;;
13445;SDS011;6795;51.232;3.764;2022-09-28T19:31:43;11.63;;;9.88;;
13445;SDS011;6795;51.232;3.764;2022-09-28T19:38:33;8.82;;;7.55;;
13445;SDS011;6795;51.232;3.764;2022-09-28T19:41:46;13.27;;;9.20;;
13445;SDS011;6795;51.232;3.764;2022-09-28T19:44:46;7.35;;;6.75;;
13445;SDS011;6795;51.232;3.764;2022-09-28T19:48:00;6.47;;;5.88;;
13445;SDS011;6795;51.232;3.764;2022-09-28T19:51:23;11.00;;;8.05;;
13445;SDS011;6795;51.232;3.764;2022-09-28T19:55:02;9.27;;;8.38;;
13445;SDS011;6795;51.232;3.764;2022-09-28T19:58:01;13.10;;;10.65;;
13445;SDS011;6795;51.232;3.764;2022-09-28T20:01:16;17.52;;;13.93;;
13445;SDS011;6795;51.232;3.764;2022-09-28T20:04:51;12.63;;;11.10;;
13445;SDS011;6795;51.232;3.764;2022-09-28T20:12:24;9.90;;;8.95;;
13445;SDS011;6795;51.232;3.764;2022-09-28T20:15:32;12.48;;;10.07;;
13445;SDS011;6795;51.232;3.764;2022-09-28T20:19:06;11.52;;;10.35;;
13445;SDS011;6795;51.232;3.764;2022-09-28T20:22:49;10.40;;;9.43;;
13445;SDS011;6795;51.232;3.764;2022-09-28T20:26:11;10.65;;;9.73;;
13445;SDS011;6795;51.232;3.764;2022-09-28T20:37:18;15.45;;;12.63;;
13445;SDS011;6795;51.232;3.764;2022-09-28T20:40:36;13.68;;;12.07;;
13445;SDS011;6795;51.232;3.764;2022-09-28T20:44:05;16.05;;;13.85;;
13445;SDS011;6795;51.232;3.764;2022-09-28T20:47:30;14.20;;;13.00;;
13445;SDS011;6795;51.232;3.764;2022-09-28T20:51:04;13.60;;;12.20;;
13445;SDS011;6795;51.232;3.764;2022-09-28T20:58:09;14.00;;;11.13;;
13445;SDS011;6795;51.232;3.764;2022-09-28T21:01:36;17.23;;;14.27;;
13445;SDS011;6795;51.232;3.764;2022-09-28T21:04:54;17.88;;;15.93;;
13445;SDS011;6795;51.232;3.764;2022-09-28T21:08:05;17.40;;;15.68;;
13445;SDS011;6795;51.232;3.764;2022-09-28T21:11:24;19.02;;;15.23;;
13445;SDS011;6795;51.232;3.764;2022-09-28T21:15:09;19.77;;;16.90;;
13445;SDS011;6795;51.232;3.764;2022-09-28T21:18:47;17.60;;;15.75;;
13445;SDS011;6795;51.232;3.764;2022-09-28T21:22:27;18.95;;;15.90;;
13445;SDS011;6795;51.232;3.764;2022-09-28T21:25:38;21.65;;;19.10;;
13445;SDS011;6795;51.232;3.764;2022-09-28T21:29:04;38.97;;;30.17;;
13445;SDS011;6795;51.232;3.764;2022-09-28T21:32:26;23.35;;;20.83;;
13445;SDS011;6795;51.232;3.764;2022-09-28T21:35:51;23.93;;;18.30;;
13445;SDS011;6795;51.232;3.764;2022-09-28T21:38:51;25.67;;;21.03;;
13445;SDS011;6795;51.232;3.764;2022-09-28T21:41:21;25.42;;;22.75;;
13445;SDS011;6795;51.232;3.764;2022-09-28T21:43:50;24.02;;;20.73;;
13445;SDS011;6795;51.232;3.764;2022-09-28T21:46:18;25.55;;;21.73;;
13445;SDS011;6795;51.232;3.764;2022-09-28T21:48:49;26.20;;;21.80;;
13445;SDS011;6795;51.232;3.764;2022-09-28T21:51:19;26.85;;;24.00;;
13445;SDS011;6795;51.232;3.764;2022-09-28T21:53:47;27.65;;;23.33;;
13445;SDS011;6795;51.232;3.764;2022-09-28T21:56:22;26.13;;;22.75;;
13445;SDS011;6795;51.232;3.764;2022-09-28T22:00:09;25.40;;;21.67;;
13445;SDS011;6795;51.232;3.764;2022-09-28T22:03:42;25.47;;;22.70;;
13445;SDS011;6795;51.232;3.764;2022-09-28T22:07:13;27.27;;;23.08;;
13445;SDS011;6795;51.232;3.764;2022-09-28T22:10:21;27.67;;;23.10;;
13445;SDS011;6795;51.232;3.764;2022-09-28T22:13:40;30.53;;;27.27;;
13445;SDS011;6795;51.232;3.764;2022-09-28T22:16:44;31.03;;;27.40;;
13445;SDS011;6795;51.232;3.764;2022-09-28T22:19:54;27.92;;;23.75;;
13445;SDS011;6795;51.232;3.764;2022-09-28T22:23:14;28.77;;;24.37;;
13445;SDS011;6795;51.232;3.764;2022-09-28T22:26:19;29.58;;;24.73;;
13445;SDS011;6795;51.232;3.764;2022-09-28T22:29:49;34.27;;;27.87;;
13445;SDS011;6795;51.232;3.764;2022-09-28T22:37:16;29.30;;;25.73;;
13445;SDS011;6795;51.232;3.764;2022-09-28T22:40:30;38.37;;;29.70;;
13445;SDS011;6795;51.232;3.764;2022-09-28T22:43:55;31.20;;;26.80;;
13445;SDS011;6795;51.232;3.764;2022-09-28T22:47:01;34.60;;;26.57;;
13445;SDS011;6795;51.232;3.764;2022-09-28T22:50:42;33.83;;;26.73;;
13445;SDS011;6795;51.232;3.764;2022-09-28T22:58:10;32.57;;;25.97;;
13445;SDS011;6795;51.232;3.764;2022-09-28T23:01:26;32.63;;;25.33;;
13445;SDS011;6795;51.232;3.764;2022-09-28T23:04:49;29.80;;;25.23;;
13445;SDS011;6795;51.232;3.764;2022-09-28T23:08:34;34.27;;;27.23;;
13445;SDS011;6795;51.232;3.764;2022-09-28T23:11:30;32.17;;;28.27;;
13445;SDS011;6795;51.232;3.764;2022-09-28T23:18:45;32.80;;;27.73;;
13445;SDS011;6795;51.232;3.764;2022-09-28T23:22:06;34.67;;;29.00;;
13445;SDS011;6795;51.232;3.764;2022-09-28T23:25:54;37.60;;;29.73;;
13445;SDS011;6795;51.232;3.764;2022-09-28T23:28:56;38.78;;;32.15;;
13445;SDS011;6795;51.232;3.764;2022-09-28T23:32:00;40.53;;;32.83;;
13445;SDS011;6795;51.232;3.764;2022-09-28T23:35:24;38.92;;;32.45;;
13445;SDS011;6795;51.232;3.764;2022-09-28T23:38:39;43.17;;;32.70;;
13445;SDS011;6795;51.232;3.764;2022-09-28T23:41:37;39.80;;;33.17;;
13445;SDS011;6795;51.232;3.764;2022-09-28T23:44:52;41.70;;;34.10;;
13445;SDS011;6795;51.232;3.764;2022-09-28T23:55:45;44.60;;;34.17;;
13445;SDS011;6795;51.232;3.764;2022-09-28T23:58:51;45.67;;;33.60;;
